Terminal Aerodrome Forecast
Issued by NWS

Home | Current Version | Previous Version | Text Only | Print | Product List | Glossary On
Versions: 1 2 3 4 5 6 7 8 9 10 11 12
000
FTUS45 KABQ 271131
TAFTCC
TAF
KTCC 271131Z 2712/2812 VRB06KT P6SM SCT120
     FM271700 21012G20KT P6SM SCT140 BKN200
     FM272100 21016G25KT P6SM SCT150 BKN200
     FM280100 18008KT P6SM FEW090 SCT200
     FM280800 21010KT P6SM BKN150=

USA.gov is the U.S. government's official web portal to all federal, state and local government web resources and services.